Time;durP1;ratioP1;P1;durP2;ratioP2;P2;SDS_P1;SDS_P2;PMS_P1;PMS_P2;Temp;Humidity;BMP_temperature;BMP_pressure;BME280_temperature;BME280_humidity;BME280_pressure;Samples;Min_cycle;Max_cycle;Signal;HPM_P1;HPM_P2
2021/09/26 00:01:33;;;;;;;7.47;5.62;;;;;;;17.07;64.82;95024.09;802318;72;31848;-77
2021/09/26 00:16:39;;;;;;;6.60;6.00;;;;;;;16.93;65.49;95023.47;801797;74;31920;-76
2021/09/26 02:31:39;;;;;;;7.65;5.97;;;;;;;15.58;69.15;95027.64;808605;72;33273;-76
2021/09/26 03:16:08;;;;;;;6.78;6.08;;;;;;;15.28;70.03;95046.41;828149;71;30173;-76
2021/09/26 03:31:08;;;;;;;7.35;5.25;;;;;;;15.03;70.43;95038.03;819842;71;29804;-77
2021/09/26 03:46:09;;;;;;;5.62;5.10;;;;;;;14.97;70.81;95038.70;824890;71;30597;-75
2021/09/26 04:01:09;;;;;;;5.65;5.15;;;;;;;14.88;70.76;95029.95;825232;71;29922;-75
2021/09/26 04:16:49;;;;;;;6.00;5.50;;;;;;;14.78;71.42;95052.62;828330;71;26999;-76
2021/09/26 04:31:14;;;;;;;10.40;6.60;;;;;;;14.78;71.72;95052.10;825784;71;32751;-75
2021/09/26 04:46:33;;;;;;;8.03;6.75;;;;;;;14.86;71.80;95057.19;816133;72;32753;-77
2021/09/26 05:01:09;;;;;;;6.70;6.10;;;;;;;15.11;71.37;95061.64;823795;71;29820;-76
2021/09/26 05:16:09;;;;;;;8.55;7.47;;;;;;;17.62;65.74;95068.41;825420;71;30421;-78
2021/09/26 05:31:14;;;;;;;10.18;8.58;;;;;;;19.70;58.98;95063.19;825390;71;33275;-80
2021/09/26 05:46:10;;;;;;;11.43;9.20;;;;;;;21.30;54.30;95070.92;824187;71;29760;-79
2021/09/26 06:01:09;;;;;;;12.33;11.00;;;;;;;21.89;52.41;95074.70;825094;71;30312;-79
2021/09/26 06:16:08;;;;;;;11.48;10.28;;;;;;;22.91;49.87;95077.13;828085;71;29769;-79
2021/09/26 08:01:15;;;;;;;7.30;6.70;;;;;;;27.48;42.11;95079.84;831180;71;33365;-79
2021/09/26 08:16:14;;;;;;;7.87;6.67;;;;;;;28.03;40.07;95080.87;818971;71;33260;-78
2021/09/26 08:31:08;;;;;;;7.33;6.63;;;;;;;27.95;37.95;166042.98;827896;71;29846;-79
2021/09/26 09:32:00;;;;;;;7.93;7.23;;;;;;;29.69;35.89;95044.61;779040;72;33569;-78
2021/09/26 10:31:42;;;;;;;22.27;20.00;;;;;;;29.39;37.70;94985.71;778517;75;33535;-77
2021/09/26 11:01:33;;;;;;;8.10;7.50;;;;;;;30.99;34.59;94950.08;807659;72;33376;-78
2021/09/26 11:46:19;;;;;;;6.50;6.00;;;;;;;31.29;31.34;94897.72;828045;71;29686;-76
2021/09/26 12:01:14;;;;;;;6.67;6.07;;;;;;;31.10;30.57;94880.20;793530;74;32940;-77
2021/09/26 12:16:09;;;;;;;6.30;5.80;;;;;;;30.22;31.15;94868.78;828002;71;30318;-75
2021/09/26 12:31:15;;;;;;;6.80;6.20;;;;;;;30.32;31.73;94843.53;833841;71;32674;-78
2021/09/26 12:46:09;;;;;;;6.43;5.83;;;;;;;30.34;31.70;94826.28;833982;71;30101;-76
2021/09/26 13:16:27;;;;;;;5.90;5.40;;;;;;;29.67;31.29;94794.02;819565;71;33260;-77
2021/09/26 13:31:17;;;;;;;6.57;6.07;;;;;;;29.40;30.99;94767.64;828275;71;29730;-79
2021/09/26 13:46:11;;;;;;;5.93;5.43;;;;;;;28.70;31.27;94755.12;828106;71;30240;-80
2021/09/26 14:01:14;;;;;;;5.10;4.60;;;;;;;28.43;31.71;94752.22;827985;71;32094;-76
2021/09/26 14:16:09;;;;;;;4.60;4.30;;;;;;;28.02;32.01;94748.81;829893;71;29739;-78
2021/09/26 14:31:16;;;;;;;5.90;5.40;;;;;;;27.66;34.31;94740.86;828723;71;32649;-76
2021/09/26 14:46:16;;;;;;;6.17;5.63;;;;;;;27.16;35.62;94728.27;835102;71;32675;-76
2021/09/26 15:16:09;;;;;;;9.60;6.20;;;;;;;26.37;39.71;94711.39;828227;71;30096;-75
2021/09/26 15:31:09;;;;;;;12.53;10.90;;;;;;;25.96;43.06;94706.36;825138;71;29788;-78
2021/09/26 15:46:11;;;;;;;24.80;15.17;;;;;;;25.62;43.81;94708.53;827970;71;30964;-78
2021/09/26 16:01:11;;;;;;;15.53;11.10;;;;;;;25.12;44.04;94700.44;833835;71;30346;-80
2021/09/26 16:16:14;;;;;;;16.80;11.70;;;;;;;24.72;43.82;94698.08;821657;71;33257;-77
2021/09/26 16:31:08;;;;;;;12.70;9.47;;;;;;;23.94;40.33;94697.59;834043;71;29715;-75
2021/09/26 16:46:16;;;;;;;7.40;6.60;;;;;;;23.26;40.50;94705.43;815918;71;32772;-78
2021/09/26 17:01:08;;;;;;;9.47;8.47;;;;;;;22.69;41.06;94718.20;816871;71;29789;-76
2021/09/26 17:16:12;;;;;;;11.43;8.77;;;;;;;22.29;43.11;94733.41;819202;71;32607;-77
2021/09/26 17:31:09;;;;;;;9.83;8.25;;;;;;;21.93;44.06;94746.88;825922;71;30177;-76
2021/09/26 17:46:11;;;;;;;9.15;8.18;;;;;;;21.58;43.60;94742.41;824827;71;29685;-77
2021/09/26 18:31:09;;;;;;;8.53;6.92;;;;;;;22.08;45.50;94761.29;822665;71;29846;-77
2021/09/26 18:46:33;;;;;;;10.87;7.70;;;;;;;22.56;49.52;94752.38;801881;74;32839;-77
2021/09/26 19:01:41;;;;;;;9.20;7.67;;;;;;;23.03;48.27;94770.50;826686;71;27080;-76
2021/09/26 19:16:09;;;;;;;9.67;7.10;;;;;;;23.11;47.80;94766.03;821126;71;30251;-76
2021/09/26 19:31:21;;;;;;;10.00;7.07;;;;;;;22.82;46.26;94764.25;821061;71;33703;-75
2021/09/26 19:46:11;;;;;;;9.50;6.10;;;;;;;22.05;49.32;94761.98;821407;71;30446;-76
2021/09/26 20:01:19;;;;;;;11.80;6.30;;;;;;;22.63;47.89;94766.45;833830;71;32730;-77
2021/09/26 20:16:08;;;;;;;8.97;7.00;;;;;;;22.79;46.91;94760.39;828003;71;29656;-76
2021/09/26 20:31:49;;;;;;;10.33;8.17;;;;;;;22.88;46.36;94762.05;834099;71;27181;-76
2021/09/26 20:46:10;;;;;;;10.23;9.07;;;;;;;22.79;46.17;94763.64;828122;71;29801;-74
2021/09/26 21:46:08;;;;;;;8.65;7.10;;;;;;;21.52;52.00;94769.18;828009;71;29699;-76
2021/09/26 22:01:13;;;;;;;10.25;6.90;;;;;;;22.10;48.66;94776.41;834625;71;32144;-75
2021/09/26 22:16:09;;;;;;;6.87;6.17;;;;;;;22.29;47.39;94778.86;828166;71;29688;-76
2021/09/26 22:31:10;;;;;;;6.78;6.15;;;;;;;22.29;46.96;94764.92;835144;71;29722;-77
2021/09/26 22:46:09;;;;;;;7.53;6.60;;;;;;;22.35;46.79;94762.16;834565;71;29673;-76
2021/09/26 23:01:31;;;;;;;6.47;5.83;;;;;;;22.48;49.12;94753.96;824129;71;32838;-76
2021/09/26 23:16:48;;;;;;;6.43;5.83;;;;;;;22.39;47.94;94760.89;833896;71;31242;-77
2021/09/26 23:31:16;;;;;;;6.73;6.13;;;;;;;22.40;47.28;94770.45;828401;71;33453;-79
2021/09/26 23:47:00;;;;;;;5.93;5.47;;;;;;;22.26;47.47;94756.27;833889;71;32781;-76
